createdAt,value
2018-04-29T00:01:39.569Z,2.50
2018-04-29T00:04:07.025Z,3.43
2018-04-29T00:06:33.868Z,2.63
2018-04-29T00:09:00.511Z,2.23
2018-04-29T00:11:27.863Z,3.17
2018-04-29T00:13:55.121Z,3.10
2018-04-29T00:16:21.633Z,1.77
2018-04-29T00:18:48.191Z,2.80
2018-04-29T00:21:15.751Z,2.50
2018-04-29T00:23:42.492Z,2.60
2018-04-29T00:26:09.446Z,2.27
2018-04-29T00:28:36.693Z,2.20
2018-04-29T00:31:04.150Z,2.93
2018-04-29T00:33:31.403Z,2.30
2018-04-29T00:35:57.923Z,2.70
2018-04-29T00:38:24.374Z,2.17
2018-04-29T00:40:51.620Z,2.40
2018-04-29T00:43:18.266Z,3.10
2018-04-29T00:45:45.520Z,1.93
2018-04-29T00:48:11.954Z,2.80
2018-04-29T00:50:38.490Z,2.60
2018-04-29T00:53:05.848Z,2.77
2018-04-29T00:55:32.469Z,2.53
2018-04-29T00:57:59.135Z,2.30
2018-04-29T01:00:26.584Z,2.40
2018-04-29T01:02:53.122Z,2.50
2018-04-29T01:05:20.353Z,2.27
2018-04-29T01:10:49.891Z,2.37
2018-04-29T01:13:16.252Z,2.27
2018-04-29T01:15:42.609Z,1.80
2018-04-29T01:18:08.988Z,1.67
2018-04-29T01:20:35.330Z,1.50
2018-04-29T01:23:01.705Z,1.97
2018-04-29T01:25:28.071Z,1.40
2018-04-29T01:27:54.411Z,1.33
2018-04-29T01:30:20.781Z,0.97
2018-04-29T01:32:47.866Z,2.10
2018-04-29T01:35:14.235Z,1.60
2018-04-29T01:37:40.582Z,1.60
2018-04-29T01:40:07.045Z,1.40
2018-04-29T01:42:33.392Z,0.90
2018-04-29T01:44:59.764Z,0.80
2018-04-29T01:47:27.608Z,0.70
2018-04-29T01:49:54.021Z,0.77
2018-04-29T01:52:20.410Z,1.10
2018-04-29T01:54:47.533Z,1.30
2018-04-29T01:57:13.923Z,1.23
2018-04-29T01:59:41.013Z,1.77
2018-04-29T02:02:07.367Z,1.13
2018-04-29T02:04:33.731Z,1.33
2018-04-29T02:07:00.842Z,1.00
2018-04-29T02:09:27.206Z,1.30
2018-04-29T02:11:54.296Z,1.20
2018-04-29T02:14:20.651Z,1.90
2018-04-29T02:16:46.996Z,2.40
2018-04-29T02:19:13.360Z,2.30
2018-04-29T02:21:40.493Z,1.70
2018-04-29T02:24:07.638Z,1.40
2018-04-29T02:26:34.019Z,1.37
2018-04-29T02:29:00.449Z,2.20
2018-04-29T02:31:26.862Z,2.13
2018-04-29T02:33:53.974Z,2.67
2018-04-29T02:36:20.357Z,2.67
2018-04-29T02:38:46.727Z,2.20
2018-04-29T02:41:13.088Z,1.20
2018-04-29T02:43:39.660Z,2.27
2018-04-29T02:46:06.043Z,2.70
2018-04-29T02:48:32.402Z,2.10
2018-04-29T02:50:59.545Z,1.13
2018-04-29T02:53:25.904Z,1.03
2018-04-29T02:55:52.320Z,2.07
2018-04-29T02:58:18.667Z,2.63
2018-04-29T03:00:45.773Z,3.33
2018-04-29T03:03:12.172Z,3.10
2018-04-29T03:05:38.563Z,3.27
2018-04-29T03:08:04.892Z,2.77
2018-04-29T03:10:31.421Z,2.40
2018-04-29T03:12:57.770Z,2.53
2018-04-29T03:15:24.125Z,2.87
2018-04-29T03:17:50.503Z,2.80
2018-04-29T03:20:16.872Z,2.10
2018-04-29T03:22:43.969Z,2.70
2018-04-29T03:25:10.308Z,2.50
2018-04-29T03:27:36.684Z,3.80
2018-04-29T03:30:03.818Z,2.67
2018-04-29T03:32:31.683Z,2.53
2018-04-29T03:34:58.081Z,2.27
2018-04-29T03:37:24.448Z,2.40
2018-04-29T03:39:50.845Z,2.90
2018-04-29T03:42:17.215Z,4.97
2018-04-29T03:44:43.595Z,3.23
2018-04-29T03:47:09.966Z,3.30
2018-04-29T03:49:36.351Z,3.57
2018-04-29T03:52:03.433Z,2.80
2018-04-29T03:54:29.809Z,3.30
2018-04-29T03:57:09.076Z,2.50
2018-04-29T03:59:47.811Z,2.33
2018-04-29T04:02:26.614Z,3.30
2018-04-29T04:04:53.730Z,3.20
2018-04-29T04:07:20.206Z,2.53
2018-04-29T04:09:46.641Z,2.47
2018-04-29T04:12:12.955Z,2.33
2018-04-29T04:14:40.068Z,2.30
2018-04-29T04:17:06.433Z,2.10
2018-04-29T04:19:33.544Z,2.27
2018-04-29T04:21:59.900Z,2.13
2018-04-29T04:24:26.260Z,2.33
2018-04-29T04:26:53.356Z,2.10
2018-04-29T04:29:19.868Z,2.63
2018-04-29T04:31:46.191Z,2.13
2018-04-29T04:34:12.610Z,2.20
2018-04-29T04:36:39.711Z,2.60
2018-04-29T04:39:06.091Z,2.73
2018-04-29T04:41:33.192Z,1.50
2018-04-29T04:43:59.614Z,1.70
2018-04-29T04:46:26.046Z,2.00
2018-04-29T04:48:52.407Z,1.93
2018-04-29T04:51:18.772Z,1.73
2018-04-29T04:53:45.142Z,2.07
2018-04-29T04:56:11.566Z,1.50
2018-04-29T04:58:37.896Z,1.03
2018-04-29T05:01:04.284Z,1.50
2018-04-29T05:03:30.666Z,2.40
2018-04-29T05:05:57.056Z,2.10
2018-04-29T05:08:23.417Z,2.50
2018-04-29T05:10:49.832Z,1.87
2018-04-29T05:13:16.920Z,2.20
2018-04-29T05:15:43.317Z,1.63
2018-04-29T05:18:10.454Z,2.03
2018-04-29T05:20:36.858Z,2.20
2018-04-29T05:23:03.414Z,2.37
2018-04-29T05:25:29.793Z,2.27
2018-04-29T05:27:56.198Z,2.50
2018-04-29T05:30:23.322Z,2.03
2018-04-29T05:32:49.708Z,2.30
2018-04-29T05:35:16.077Z,2.67
2018-04-29T05:37:42.437Z,3.00
2018-04-29T05:40:08.815Z,2.63
2018-04-29T05:42:35.183Z,2.17
2018-04-29T05:45:01.833Z,1.90
2018-04-29T05:47:28.220Z,3.10
2018-04-29T05:49:55.730Z,2.90
2018-04-29T05:52:22.092Z,2.50
2018-04-29T05:54:48.468Z,2.17
2018-04-29T05:57:14.829Z,2.57
2018-04-29T05:59:41.234Z,1.93
2018-04-29T06:02:07.620Z,2.07
2018-04-29T06:04:33.985Z,1.80
2018-04-29T06:07:00.332Z,1.80
2018-04-29T06:09:26.898Z,2.00
2018-04-29T06:11:53.466Z,1.87
2018-04-29T06:14:21.200Z,1.67
2018-04-29T06:16:48.575Z,1.67
2018-04-29T06:19:15.708Z,1.63
2018-04-29T06:21:42.827Z,1.60
2018-04-29T06:24:09.223Z,1.53
2018-04-29T06:26:35.637Z,1.43
2018-04-29T06:29:02.785Z,1.60
2018-04-29T06:31:29.168Z,1.47
2018-04-29T06:33:55.578Z,1.70
2018-04-29T06:36:21.971Z,1.27
2018-04-29T06:38:48.350Z,1.40
2018-04-29T06:41:15.052Z,1.67
2018-04-29T06:43:42.205Z,1.77
2018-04-29T06:46:09.358Z,1.40
2018-04-29T06:48:35.758Z,1.40
2018-04-29T06:51:02.151Z,1.50
2018-04-29T06:53:28.555Z,1.50
2018-04-29T06:55:54.927Z,1.63
2018-04-29T06:58:21.732Z,1.40
2018-04-29T07:00:49.292Z,1.40
2018-04-29T07:03:17.827Z,1.50
2018-04-29T07:05:49.680Z,1.47
2018-04-29T07:08:16.111Z,1.47
2018-04-29T07:10:42.646Z,1.37
2018-04-29T07:13:09.140Z,1.57
2018-04-29T07:15:35.537Z,1.30
2018-04-29T07:18:01.946Z,1.40
2018-04-29T07:20:28.361Z,1.30
2018-04-29T07:22:55.465Z,1.80
2018-04-29T07:25:21.870Z,1.50
2018-04-29T07:27:48.254Z,1.80
2018-04-29T07:30:15.824Z,1.70
2018-04-29T07:32:42.214Z,1.70
2018-04-29T07:35:08.596Z,2.10
2018-04-29T07:37:34.953Z,2.43
2018-04-29T07:40:01.420Z,2.60
2018-04-29T07:42:27.776Z,1.63
2018-04-29T07:44:54.921Z,3.43
2018-04-29T07:47:21.304Z,2.90
2018-04-29T07:49:48.736Z,2.20
2018-04-29T07:52:15.880Z,1.43
2018-04-29T07:54:42.311Z,1.80
2018-04-29T07:57:08.680Z,1.90
2018-04-29T07:59:35.080Z,1.70
2018-04-29T08:02:01.515Z,1.60
2018-04-29T08:04:27.947Z,1.40
2018-04-29T08:06:54.428Z,1.93
2018-04-29T08:09:20.861Z,1.33
2018-04-29T08:11:47.321Z,2.00
2018-04-29T08:14:13.816Z,2.07
2018-04-29T08:19:13.373Z,1.90
2018-04-29T08:21:39.792Z,1.63
2018-04-29T08:24:06.257Z,1.80
2018-04-29T08:26:32.699Z,1.53
2018-04-29T08:28:59.160Z,1.90
2018-04-29T08:31:26.615Z,1.77
2018-04-29T08:33:53.771Z,1.60
2018-04-29T08:36:21.008Z,2.23
2018-04-29T08:38:47.418Z,2.10
2018-04-29T08:41:15.886Z,2.27
2018-04-29T08:43:42.325Z,1.90
2018-04-29T08:46:08.810Z,2.10
2018-04-29T08:48:35.367Z,1.80
2018-04-29T08:51:01.731Z,1.80
2018-04-29T08:53:28.118Z,2.43
2018-04-29T08:55:55.364Z,1.80
2018-04-29T08:58:21.723Z,2.13
2018-04-29T09:00:48.119Z,2.00
2018-04-29T09:03:14.508Z,2.70
2018-04-29T09:05:40.904Z,2.50
2018-04-29T09:08:07.324Z,2.40
2018-04-29T09:10:33.770Z,2.40
2018-04-29T09:13:00.884Z,1.90
2018-04-29T09:15:27.259Z,2.77
2018-04-29T09:17:59.931Z,2.47
2018-04-29T09:20:32.376Z,2.23
2018-04-29T09:22:58.748Z,2.10
2018-04-29T09:25:25.184Z,2.47
2018-04-29T09:27:51.594Z,2.63
2018-04-29T09:30:18.033Z,2.47
2018-04-29T09:32:45.906Z,2.60
2018-04-29T09:35:18.524Z,2.00
2018-04-29T09:37:51.240Z,2.47
2018-04-29T09:40:17.613Z,2.57
2018-04-29T09:42:50.270Z,2.27
2018-04-29T09:45:16.703Z,2.20
2018-04-29T09:47:43.052Z,2.30
2018-04-29T09:50:10.196Z,1.93
2018-04-29T09:52:37.306Z,1.80
2018-04-29T09:55:03.709Z,1.83
2018-04-29T09:57:30.057Z,2.33
2018-04-29T09:59:56.444Z,2.20
2018-04-29T10:02:23.531Z,2.40
2018-04-29T10:04:49.945Z,2.97
2018-04-29T10:07:16.345Z,2.47
2018-04-29T10:09:42.735Z,2.00
2018-04-29T10:12:09.080Z,2.37
2018-04-29T10:14:35.469Z,2.10
2018-04-29T10:17:02.605Z,1.93
2018-04-29T10:19:35.988Z,1.90
2018-04-29T10:22:03.857Z,2.20
2018-04-29T10:24:30.410Z,2.13
2018-04-29T10:26:56.730Z,2.20
2018-04-29T10:29:23.160Z,2.10
2018-04-29T10:31:50.523Z,2.20
2018-04-29T10:34:17.066Z,2.10
2018-04-29T10:36:43.524Z,2.20
2018-04-29T10:39:10.761Z,2.30
2018-04-29T10:41:43.275Z,2.23
2018-04-29T10:44:16.008Z,2.67
2018-04-29T10:46:43.877Z,2.77
2018-04-29T10:49:10.419Z,2.10
2018-04-29T10:51:36.871Z,2.20
2018-04-29T10:54:03.333Z,2.10
2018-04-29T10:56:29.803Z,2.33
2018-04-29T10:58:58.276Z,2.37
2018-04-29T11:01:26.817Z,2.10
2018-04-29T11:03:57.300Z,2.60
2018-04-29T11:06:27.710Z,1.87
2018-04-29T11:08:54.223Z,2.50
2018-04-29T11:11:20.750Z,2.00
2018-04-29T11:13:47.183Z,2.10
2018-04-29T11:16:13.644Z,2.13
2018-04-29T11:18:40.124Z,2.30
2018-04-29T11:21:10.487Z,2.80
2018-04-29T11:23:36.960Z,2.47
2018-04-29T11:26:03.438Z,2.30
2018-04-29T11:28:30.733Z,2.67
2018-04-29T11:30:57.216Z,2.60
2018-04-29T11:33:28.668Z,2.37
2018-04-29T11:35:55.883Z,2.17
2018-04-29T11:38:25.380Z,2.47
2018-04-29T11:40:57.708Z,2.77
2018-04-29T11:43:24.348Z,2.10
2018-04-29T11:45:51.667Z,2.03
2018-04-29T11:48:20.116Z,2.33
2018-04-29T11:50:46.562Z,2.37
2018-04-29T11:53:13.040Z,2.83
2018-04-29T11:55:39.550Z,2.77
2018-04-29T11:58:06.022Z,2.20
2018-04-29T12:00:35.326Z,2.10
2018-04-29T12:03:01.808Z,2.77
2018-04-29T12:05:28.276Z,1.90
2018-04-29T12:07:54.859Z,2.37
2018-04-29T12:10:21.409Z,2.60
2018-04-29T12:12:47.916Z,2.50
2018-04-29T12:15:14.417Z,2.30
2018-04-29T12:17:40.935Z,2.37
2018-04-29T12:20:07.391Z,1.83
2018-04-29T12:22:33.823Z,3.03
2018-04-29T12:25:00.382Z,2.35
2018-04-29T12:27:26.835Z,2.55
2018-04-29T12:29:53.301Z,2.72
2018-04-29T12:32:19.841Z,2.60
2018-04-29T12:34:46.297Z,2.70
2018-04-29T12:37:12.961Z,2.30
2018-04-29T12:39:39.409Z,2.12
2018-04-29T12:42:05.876Z,2.08
2018-04-29T12:44:32.338Z,2.80
2018-04-29T12:46:58.809Z,2.25
2018-04-29T12:49:25.231Z,2.55
2018-04-29T12:51:52.609Z,3.05
2018-04-29T12:54:19.027Z,2.62
2018-04-29T12:56:45.495Z,3.08
2018-04-29T12:59:11.953Z,2.83
2018-04-29T13:01:38.393Z,2.65
2018-04-29T13:04:05.684Z,2.90
2018-04-29T13:06:32.147Z,2.50
2018-04-29T13:08:58.636Z,2.50
2018-04-29T13:11:25.230Z,2.57
2018-04-29T13:13:51.717Z,2.37
2018-04-29T13:16:18.211Z,2.47
2018-04-29T13:18:44.671Z,2.43
2018-04-29T13:21:11.901Z,2.77
2018-04-29T13:23:38.351Z,2.80
2018-04-29T13:26:05.572Z,2.30
2018-04-29T13:28:32.065Z,2.67
2018-04-29T13:30:58.589Z,2.40
2018-04-29T13:33:25.246Z,2.10
2018-04-29T13:35:51.864Z,2.03
2018-04-29T13:38:18.389Z,2.67
2018-04-29T13:40:45.093Z,2.60
2018-04-29T13:43:11.559Z,2.40
2018-04-29T13:45:38.785Z,2.43
2018-04-29T13:48:05.264Z,2.40
2018-04-29T13:50:31.754Z,2.70
2018-04-29T13:52:58.282Z,2.47
2018-04-29T13:55:24.747Z,2.30
2018-04-29T13:57:51.942Z,1.97
2018-04-29T14:00:18.503Z,2.10
2018-04-29T14:02:44.928Z,2.10
2018-04-29T14:05:11.404Z,2.30
2018-04-29T14:07:38.600Z,2.37
2018-04-29T14:10:05.160Z,2.07
2018-04-29T14:12:31.659Z,2.53
2018-04-29T14:14:58.132Z,2.13
2018-04-29T14:17:24.644Z,2.67
2018-04-29T14:19:51.954Z,3.20
2018-04-29T14:22:19.208Z,2.40
2018-04-29T14:24:45.698Z,2.33
2018-04-29T14:27:12.175Z,2.73
2018-04-29T14:29:39.414Z,2.47
2018-04-29T14:32:05.901Z,2.53
2018-04-29T14:34:32.399Z,2.60
2018-04-29T14:36:58.860Z,2.80
2018-04-29T14:39:25.346Z,2.20
2018-04-29T14:41:51.792Z,3.03
2018-04-29T14:44:19.028Z,2.40
2018-04-29T14:46:45.482Z,2.67
2018-04-29T14:49:12.679Z,2.50
2018-04-29T14:51:39.178Z,2.30
2018-04-29T14:54:05.692Z,2.50
2018-04-29T14:56:32.186Z,2.20
2018-04-29T14:58:58.736Z,2.07
2018-04-29T15:01:25.401Z,2.47
2018-04-29T15:03:51.887Z,2.67
2018-04-29T15:06:18.342Z,2.43
2018-04-29T15:08:44.818Z,3.13
2018-04-29T15:11:12.041Z,2.60
2018-04-29T15:13:38.500Z,4.60
2018-04-29T15:16:05.007Z,2.40
2018-04-29T15:18:44.715Z,2.57
2018-04-29T15:21:11.196Z,2.60
2018-04-29T15:23:37.921Z,2.20
2018-04-29T15:26:04.495Z,2.70
2018-04-29T15:28:31.705Z,1.90
2018-04-29T15:30:58.190Z,2.60
2018-04-29T15:33:24.747Z,2.97
2018-04-29T15:35:51.312Z,2.00
2018-04-29T15:38:17.771Z,2.47
2018-04-29T15:40:45.101Z,2.00
2018-04-29T15:43:11.519Z,2.77
2018-04-29T15:45:48.147Z,2.30
2018-04-29T15:48:21.478Z,2.47
2018-04-29T15:50:48.020Z,2.37
2018-04-29T15:53:14.534Z,2.57
2018-04-29T15:55:48.099Z,2.60
2018-04-29T15:58:14.593Z,2.47
2018-04-29T16:00:53.448Z,2.80
2018-04-29T16:03:19.928Z,2.37
2018-04-29T16:05:46.440Z,2.90
2018-04-29T16:08:13.716Z,2.27
2018-04-29T16:10:40.256Z,2.60
2018-04-29T16:13:06.741Z,2.30
2018-04-29T16:15:34.008Z,2.43
2018-04-29T16:18:01.237Z,2.30
2018-04-29T16:20:29.216Z,2.53
2018-04-29T16:22:55.679Z,2.90
2018-04-29T16:25:22.209Z,3.80
2018-04-29T16:27:53.418Z,2.57
2018-04-29T16:30:21.939Z,2.50
2018-04-29T16:33:02.179Z,2.33
2018-04-29T16:35:30.700Z,2.60
2018-04-29T16:37:57.190Z,2.50
2018-04-29T16:40:23.755Z,3.00
2018-04-29T16:42:50.975Z,3.00
2018-04-29T16:45:19.486Z,2.30
2018-04-29T16:47:46.703Z,3.00
2018-04-29T16:50:13.225Z,2.23
2018-04-29T16:52:39.692Z,2.17
2018-04-29T16:55:22.483Z,2.13
2018-04-29T16:57:50.716Z,1.97
2018-04-29T17:00:17.201Z,2.40
2018-04-29T17:02:44.419Z,2.20
2018-04-29T17:05:14.064Z,2.60
2018-04-29T17:07:46.221Z,2.37
2018-04-29T17:10:13.529Z,2.40
2018-04-29T17:12:40.025Z,2.27
2018-04-29T17:15:07.581Z,2.30
2018-04-29T17:17:34.150Z,2.67
2018-04-29T17:20:01.387Z,2.57
2018-04-29T17:22:31.884Z,2.33
2018-04-29T17:24:58.439Z,2.30
2018-04-29T17:27:26.111Z,2.20
2018-04-29T17:29:52.642Z,2.37
2018-04-29T17:32:19.207Z,2.73
2018-04-29T17:34:45.813Z,2.35
2018-04-29T17:37:23.623Z,2.20
2018-04-29T17:39:50.499Z,2.93
2018-04-29T17:42:17.349Z,2.30
2018-04-29T17:44:43.947Z,2.53
2018-04-29T17:47:11.124Z,2.17
2018-04-29T17:49:37.665Z,2.53
2018-04-29T17:52:04.973Z,2.63
2018-04-29T17:54:35.444Z,3.13
2018-04-29T17:57:01.954Z,3.60
2018-04-29T17:59:28.469Z,3.57
2018-04-29T18:01:54.953Z,4.57
2018-04-29T18:04:21.456Z,3.93
2018-04-29T18:06:47.971Z,3.20
2018-04-29T18:09:14.500Z,3.57
2018-04-29T18:11:41.030Z,3.97
2018-04-29T18:14:07.568Z,3.10
2018-04-29T18:16:34.086Z,2.77
2018-04-29T18:19:06.780Z,2.10
2018-04-29T18:21:33.271Z,2.70
2018-04-29T18:23:59.835Z,2.63
2018-04-29T18:26:27.204Z,2.80
2018-04-29T18:28:53.719Z,2.47
2018-04-29T18:31:20.953Z,2.40
2018-04-29T18:33:47.466Z,2.20
2018-04-29T18:36:13.983Z,2.53
2018-04-29T18:38:40.460Z,2.50
2018-04-29T18:41:07.752Z,2.47
2018-04-29T18:43:34.412Z,2.63
2018-04-29T18:46:00.940Z,2.27
2018-04-29T18:48:27.433Z,3.03
2018-04-29T18:50:54.816Z,2.10
2018-04-29T18:53:21.193Z,2.33
2018-04-29T18:55:47.708Z,1.80
2018-04-29T18:58:14.192Z,2.30
2018-04-29T19:00:42.469Z,2.13
2018-04-29T19:03:08.957Z,2.30
2018-04-29T19:08:38.499Z,2.57
2018-04-29T19:11:05.100Z,2.37
2018-04-29T19:13:31.542Z,2.50
2018-04-29T19:15:58.084Z,2.70
2018-04-29T19:18:24.564Z,2.90
2018-04-29T19:20:51.077Z,2.60
2018-04-29T19:23:17.541Z,3.03
2018-04-29T19:25:44.026Z,2.30
2018-04-29T19:28:10.458Z,2.57
2018-04-29T19:30:36.959Z,3.03
2018-04-29T19:33:04.200Z,2.27
2018-04-29T19:35:30.696Z,2.70
2018-04-29T19:38:01.064Z,3.17
2018-04-29T19:40:36.784Z,2.87
2018-04-29T19:43:04.234Z,2.50
2018-04-29T19:45:30.778Z,3.47
2018-04-29T19:48:03.176Z,2.80
2018-04-29T19:50:35.357Z,2.43
2018-04-29T19:53:05.944Z,3.10
2018-04-29T19:55:32.459Z,2.63
2018-04-29T19:57:58.939Z,3.03
2018-04-29T20:00:29.331Z,3.47
2018-04-29T20:02:55.784Z,3.10
2018-04-29T20:05:22.283Z,3.37
2018-04-29T20:07:48.737Z,3.20
2018-04-29T20:10:15.287Z,2.97
2018-04-29T20:12:41.779Z,2.70
2018-04-29T20:15:08.276Z,3.20
2018-04-29T20:17:34.812Z,2.70
2018-04-29T20:20:01.420Z,2.97
2018-04-29T20:22:27.876Z,2.80
2018-04-29T20:24:54.493Z,2.80
2018-04-29T20:27:20.950Z,3.00
2018-04-29T20:29:47.470Z,2.77
2018-04-29T20:32:13.953Z,2.97
2018-04-29T20:34:40.443Z,3.40
2018-04-29T20:37:06.920Z,3.23
2018-04-29T20:39:33.442Z,2.97
2018-04-29T20:41:59.888Z,3.13
2018-04-29T20:44:26.369Z,3.80
2018-04-29T20:46:52.840Z,3.57
2018-04-29T20:49:19.333Z,3.60
2018-04-29T20:51:46.597Z,2.60
2018-04-29T20:54:13.068Z,2.90
2018-04-29T20:56:39.536Z,3.53
2018-04-29T20:59:06.843Z,2.97
2018-04-29T21:01:33.371Z,2.80
2018-04-29T21:03:59.840Z,2.70
2018-04-29T21:06:26.364Z,3.30
2018-04-29T21:08:53.010Z,2.50
2018-04-29T21:11:20.311Z,2.63
2018-04-29T21:13:46.799Z,2.67
2018-04-29T21:16:13.281Z,2.83
2018-04-29T21:18:43.701Z,3.17
2018-04-29T21:21:10.210Z,2.30
2018-04-29T21:23:36.716Z,2.80
2018-04-29T21:26:03.252Z,2.37
2018-04-29T21:28:29.734Z,2.77
2018-04-29T21:30:56.964Z,2.70
2018-04-29T21:33:23.433Z,2.90
2018-04-29T21:35:50.643Z,2.60
2018-04-29T21:38:17.111Z,2.30
2018-04-29T21:40:51.311Z,2.37
2018-04-29T21:43:17.758Z,2.87
2018-04-29T21:48:48.997Z,3.00
2018-04-29T21:51:38.164Z,2.20
2018-04-29T21:54:04.652Z,2.87
2018-04-29T21:56:31.139Z,2.57
2018-04-29T21:58:57.650Z,2.33
2018-04-29T22:01:24.162Z,2.53
2018-04-29T22:03:50.688Z,2.90
2018-04-29T22:06:17.189Z,2.37
2018-04-29T22:08:51.758Z,2.30
2018-04-29T22:11:18.224Z,2.70
2018-04-29T22:13:44.715Z,2.13
2018-04-29T22:16:17.464Z,1.50
2018-04-29T22:19:04.896Z,2.30
2018-04-29T22:21:44.618Z,1.70
2018-04-29T22:24:17.159Z,2.20
2018-04-29T22:26:49.915Z,1.70
2018-04-29T22:29:22.619Z,2.20
2018-04-29T22:31:49.033Z,2.30
2018-04-29T22:34:15.384Z,2.20
2018-04-29T22:36:45.831Z,1.80
2018-04-29T22:39:12.199Z,2.23
2018-04-29T22:41:38.604Z,2.70
2018-04-29T22:44:04.963Z,2.00
2018-04-29T22:46:31.496Z,2.27
2018-04-29T22:48:57.908Z,1.20
2018-04-29T22:51:24.355Z,2.00
2018-04-29T22:53:50.806Z,2.13
2018-04-29T22:56:27.575Z,1.57
2018-04-29T22:58:53.988Z,2.03
2018-04-29T23:01:20.522Z,1.70
2018-04-29T23:03:46.999Z,2.53
2018-04-29T23:06:19.701Z,1.90
2018-04-29T23:08:46.165Z,2.33
2018-04-29T23:11:14.668Z,1.80
2018-04-29T23:13:41.100Z,2.53
2018-04-29T23:16:14.692Z,2.17
2018-04-29T23:18:43.272Z,2.70
2018-04-29T23:21:09.745Z,2.23
2018-04-29T23:23:36.229Z,2.13
2018-04-29T23:26:02.741Z,2.50
2018-04-29T23:28:29.176Z,1.90
2018-04-29T23:30:55.689Z,2.40
2018-04-29T23:33:22.124Z,2.47
2018-04-29T23:35:48.676Z,2.23
2018-04-29T23:38:15.184Z,1.90
2018-04-29T23:40:46.907Z,1.90
2018-04-29T23:43:13.352Z,2.00
2018-04-29T23:45:41.927Z,2.17
2018-04-29T23:48:08.400Z,2.20
2018-04-29T23:50:34.926Z,1.60
2018-04-29T23:53:01.372Z,2.30
2018-04-29T23:55:27.850Z,2.70
2018-04-29T23:57:55.145Z,2.00
